Time;durP1;ratioP1;P1;durP2;ratioP2;P2;SDS_P1;SDS_P2;PMS_P1;PMS_P2;Temp;Humidity;BMP_temperature;BMP_pressure;BME280_temperature;BME280_humidity;BME280_pressure;Samples;Min_cycle;Max_cycle;Signal;HPM_P1;HPM_P2
2021/09/10 00:02:19;;;;;;;30.75;20.52;;;19.40;99.90;;;;;;5034280;28;20383;-74
2021/09/10 00:04:45;;;;;;;26.90;18.97;;;19.50;99.90;;;;;;5031823;28;20751;-75
2021/09/10 00:07:10;;;;;;;29.25;19.10;;;19.50;99.90;;;;;;5032545;28;20857;-75
2021/09/10 00:09:36;;;;;;;29.53;19.63;;;19.50;99.90;;;;;;5030217;28;20399;-74
2021/09/10 00:12:02;;;;;;;30.37;20.10;;;19.50;99.90;;;;;;5030667;28;20444;-76
2021/09/10 00:14:27;;;;;;;29.58;18.80;;;19.60;99.90;;;;;;5022256;28;20769;-76
2021/09/10 00:16:53;;;;;;;30.58;18.48;;;19.60;99.90;;;;;;5011852;28;20393;-75
2021/09/10 00:19:18;;;;;;;31.30;18.60;;;19.60;99.90;;;;;;5012781;28;20507;-74
2021/09/10 00:21:44;;;;;;;30.80;19.43;;;19.70;99.90;;;;;;5031113;28;20426;-75
2021/09/10 00:24:09;;;;;;;27.33;18.73;;;19.70;99.90;;;;;;5031586;28;20391;-77
2021/09/10 00:26:35;;;;;;;28.23;19.57;;;19.80;99.90;;;;;;5031200;28;20418;-75
2021/09/10 00:29:00;;;;;;;24.85;19.50;;;19.80;99.90;;;;;;5031002;28;20485;-75
2021/09/10 00:31:26;;;;;;;30.90;19.80;;;19.70;99.90;;;;;;5031453;28;20474;-77
2021/09/10 00:33:52;;;;;;;29.07;20.53;;;19.70;99.90;;;;;;5032095;28;20479;-76
2021/09/10 00:36:17;;;;;;;28.98;20.17;;;19.60;99.90;;;;;;5030315;28;20394;-76
2021/09/10 00:38:43;;;;;;;28.13;20.10;;;19.60;99.90;;;;;;5030748;28;20919;-76
2021/09/10 00:41:08;;;;;;;30.88;19.98;;;19.60;99.90;;;;;;5030955;28;20395;-78
2021/09/10 00:43:34;;;;;;;34.10;21.80;;;19.60;99.90;;;;;;5030205;28;20494;-77
2021/09/10 00:45:59;;;;;;;36.40;21.10;;;19.60;99.90;;;;;;5031708;28;20406;-77
2021/09/10 00:48:26;;;;;;;29.80;20.65;;;19.60;99.90;;;;;;5032851;28;20438;-77
2021/09/10 00:50:53;;;;;;;36.17;21.23;;;19.60;99.90;;;;;;5037504;28;20387;-75
2021/09/10 00:53:19;;;;;;;35.07;20.90;;;19.60;99.90;;;;;;5036079;28;20378;-75
2021/09/10 00:55:46;;;;;;;32.43;21.67;;;19.70;99.90;;;;;;5030732;28;20456;-77
2021/09/10 00:58:12;;;;;;;34.60;21.40;;;19.70;99.90;;;;;;5030902;28;20383;-77
2021/09/10 01:00:38;;;;;;;34.42;20.92;;;19.70;99.90;;;;;;5031543;28;20469;-75
2021/09/10 01:03:04;;;;;;;33.35;21.42;;;19.70;99.90;;;;;;5032537;28;20423;-75
2021/09/10 01:05:29;;;;;;;44.33;22.60;;;19.60;99.90;;;;;;5038441;28;20391;-77
2021/09/10 01:07:57;;;;;;;32.05;21.10;;;19.60;99.90;;;;;;5038026;28;20403;-74
2021/09/10 01:10:23;;;;;;;28.83;20.67;;;19.60;99.90;;;;;;5030727;28;20398;-77
2021/09/10 01:12:50;;;;;;;32.22;20.75;;;19.60;99.90;;;;;;5035366;28;20383;-77
2021/09/10 01:15:17;;;;;;;32.22;22.30;;;19.70;99.90;;;;;;5018721;28;20385;-77
2021/09/10 01:17:42;;;;;;;29.23;21.00;;;19.60;99.90;;;;;;5014894;28;20392;-77
2021/09/10 01:20:10;;;;;;;28.60;21.30;;;19.70;99.90;;;;;;5014946;28;20435;-74
2021/09/10 01:22:36;;;;;;;29.30;20.43;;;19.70;99.90;;;;;;5019615;28;20485;-76
2021/09/10 01:25:11;;;;;;;33.17;21.48;;;19.60;99.90;;;;;;5050152;28;20444;-77
2021/09/10 01:27:37;;;;;;;29.93;20.27;;;19.60;99.90;;;;;;5034683;28;20407;-77
2021/09/10 01:30:04;;;;;;;33.05;20.92;;;19.60;99.90;;;;;;5034541;28;20394;-76
2021/09/10 01:32:30;;;;;;;30.52;21.10;;;19.60;99.90;;;;;;5037062;28;20922;-77
2021/09/10 01:34:55;;;;;;;31.50;19.92;;;19.60;99.90;;;;;;5039952;28;20391;-77
2021/09/10 01:37:21;;;;;;;30.85;21.55;;;19.60;99.90;;;;;;5040630;28;20399;-76
2021/09/10 01:39:47;;;;;;;28.33;19.20;;;19.50;99.90;;;;;;5034270;28;20391;-75
2021/09/10 01:42:12;;;;;;;30.52;21.23;;;19.50;99.90;;;;;;5034856;28;20445;-75
2021/09/10 01:44:38;;;;;;;36.15;21.75;;;19.50;99.90;;;;;;5035112;28;20392;-76
2021/09/10 01:47:03;;;;;;;29.13;20.60;;;19.50;99.90;;;;;;5034012;28;20418;-77
2021/09/10 01:49:29;;;;;;;28.45;21.08;;;19.50;99.90;;;;;;5034596;28;20441;-76
2021/09/10 01:51:55;;;;;;;32.90;21.20;;;19.50;99.90;;;;;;5033813;28;20394;-75
2021/09/10 01:54:20;;;;;;;28.13;19.80;;;19.50;99.90;;;;;;5032668;28;20441;-75
2021/09/10 01:56:46;;;;;;;29.07;20.03;;;19.50;99.90;;;;;;5033968;28;20907;-78
2021/09/10 01:59:11;;;;;;;29.80;19.97;;;19.50;99.90;;;;;;5035188;28;20511;-77
2021/09/10 02:01:37;;;;;;;33.63;20.90;;;19.50;99.90;;;;;;5034198;28;20378;-75
2021/09/10 02:04:03;;;;;;;28.70;19.83;;;19.60;99.90;;;;;;5028897;28;20407;-77
2021/09/10 02:06:28;;;;;;;27.30;20.70;;;19.60;99.90;;;;;;5027380;28;20441;-77
2021/09/10 02:08:54;;;;;;;29.90;21.15;;;19.60;99.90;;;;;;5032026;28;20419;-76
2021/09/10 02:11:20;;;;;;;29.77;20.93;;;19.60;99.90;;;;;;5032282;28;20378;-75
2021/09/10 02:13:46;;;;;;;28.33;20.95;;;19.60;99.90;;;;;;5036888;28;20372;-74
2021/09/10 02:16:11;;;;;;;28.85;21.50;;;19.70;99.90;;;;;;5037330;28;20485;-75
2021/09/10 02:18:38;;;;;;;30.98;20.90;;;19.70;99.90;;;;;;5025710;28;20455;-74
2021/09/10 02:21:04;;;;;;;33.13;21.60;;;19.70;99.90;;;;;;5029169;28;20414;-75
2021/09/10 02:23:30;;;;;;;30.70;21.85;;;19.70;99.90;;;;;;5034419;28;20378;-76
2021/09/10 02:25:57;;;;;;;31.10;21.58;;;19.70;99.90;;;;;;5036436;28;20383;-76
2021/09/10 02:28:22;;;;;;;33.17;23.10;;;19.70;99.90;;;;;;5036519;28;20441;-76
2021/09/10 02:30:48;;;;;;;35.63;22.43;;;19.70;99.90;;;;;;5034016;28;20871;-75
2021/09/10 02:33:14;;;;;;;29.90;21.63;;;19.70;99.90;;;;;;5030024;28;20951;-76
2021/09/10 02:35:40;;;;;;;31.67;22.80;;;19.70;99.90;;;;;;5013185;28;20785;-76
2021/09/10 02:38:06;;;;;;;31.15;22.60;;;19.60;99.90;;;;;;5013112;28;20404;-76
2021/09/10 02:40:31;;;;;;;35.53;24.38;;;19.60;99.90;;;;;;5015788;28;20391;-76
2021/09/10 02:42:57;;;;;;;35.10;22.67;;;19.60;99.90;;;;;;5033159;28;20721;-77
2021/09/10 02:45:23;;;;;;;31.93;22.77;;;19.50;99.90;;;;;;5032888;28;20539;-76
2021/09/10 02:47:48;;;;;;;30.77;23.00;;;19.40;99.90;;;;;;5032740;28;20407;-76
2021/09/10 02:50:14;;;;;;;33.10;23.63;;;19.40;99.90;;;;;;5034181;28;20391;-77
2021/09/10 02:52:40;;;;;;;30.00;22.50;;;19.40;99.90;;;;;;5032189;28;20385;-77
2021/09/10 02:55:09;;;;;;;33.22;23.88;;;19.30;99.90;;;;;;5032636;28;20473;-78
2021/09/10 02:57:35;;;;;;;33.95;23.10;;;19.20;99.90;;;;;;5033003;28;20387;-76
2021/09/10 03:00:02;;;;;;;36.40;23.98;;;19.20;99.90;;;;;;5029405;28;20403;-77
2021/09/10 03:02:28;;;;;;;34.33;24.23;;;19.10;99.90;;;;;;5032013;28;20729;-77
2021/09/10 03:04:53;;;;;;;37.25;24.58;;;19.10;99.90;;;;;;5032796;28;20391;-77
2021/09/10 03:07:19;;;;;;;37.03;24.27;;;19.10;99.90;;;;;;5034476;28;20441;-77
2021/09/10 03:09:44;;;;;;;36.10;24.57;;;19.00;99.90;;;;;;5034661;28;20464;-77
2021/09/10 03:12:10;;;;;;;35.25;24.88;;;19.00;99.90;;;;;;5034289;28;20455;-77
2021/09/10 03:14:36;;;;;;;34.70;24.53;;;19.00;99.90;;;;;;5032734;28;20453;-77
2021/09/10 03:17:01;;;;;;;35.40;24.07;;;18.90;99.90;;;;;;5032916;28;20390;-77
2021/09/10 03:19:28;;;;;;;34.30;24.47;;;18.90;99.90;;;;;;5032593;28;20478;-77
2021/09/10 03:21:53;;;;;;;35.30;24.77;;;18.90;99.90;;;;;;5021381;28;20471;-76
2021/09/10 03:24:19;;;;;;;34.63;23.60;;;18.80;99.90;;;;;;5013118;28;20385;-78
2021/09/10 03:26:45;;;;;;;35.20;24.83;;;18.90;99.90;;;;;;5018880;28;20414;-77
2021/09/10 03:29:12;;;;;;;32.33;24.50;;;18.80;99.90;;;;;;5032784;28;20390;-78
2021/09/10 03:31:38;;;;;;;38.20;25.10;;;18.80;99.90;;;;;;5032965;28;20391;-76
2021/09/10 03:34:03;;;;;;;34.70;24.52;;;18.80;99.90;;;;;;5030913;28;20391;-77
2021/09/10 03:36:29;;;;;;;34.90;25.02;;;18.70;99.90;;;;;;5032409;28;20383;-76
2021/09/10 03:38:54;;;;;;;41.40;26.43;;;18.70;99.90;;;;;;5031713;28;20788;-77
2021/09/10 03:41:20;;;;;;;38.33;25.77;;;18.70;99.90;;;;;;5031772;28;20478;-76
2021/09/10 03:43:49;;;;;;;38.25;24.45;;;18.60;99.90;;;;;;5031977;28;20526;-76
2021/09/10 03:46:15;;;;;;;35.00;24.90;;;18.60;99.90;;;;;;5033543;28;20407;-77
2021/09/10 03:48:41;;;;;;;39.00;25.38;;;18.60;99.90;;;;;;5030851;28;20410;-77
2021/09/10 03:51:06;;;;;;;35.60;23.92;;;18.60;99.90;;;;;;5032405;28;20864;-76
2021/09/10 03:53:32;;;;;;;38.58;25.15;;;18.50;99.90;;;;;;5031700;28;20430;-77
2021/09/10 03:55:58;;;;;;;36.35;25.17;;;18.50;99.90;;;;;;5030933;28;20397;-76
2021/09/10 03:58:23;;;;;;;35.33;24.20;;;18.50;99.90;;;;;;5031192;28;20411;-77
2021/09/10 04:00:49;;;;;;;38.13;25.23;;;18.50;99.90;;;;;;5032842;28;20383;-77
2021/09/10 04:03:14;;;;;;;35.13;25.02;;;18.50;99.90;;;;;;5033061;28;20385;-77
2021/09/10 04:05:40;;;;;;;42.95;25.40;;;18.40;99.90;;;;;;5032888;28;20406;-77
2021/09/10 04:08:05;;;;;;;34.63;24.27;;;18.40;99.90;;;;;;5028976;28;20403;-76
2021/09/10 04:10:31;;;;;;;41.10;25.97;;;18.50;99.90;;;;;;5012438;28;20400;-76
2021/09/10 04:12:57;;;;;;;36.20;24.90;;;18.40;99.90;;;;;;5016255;28;20464;-77
2021/09/10 04:15:22;;;;;;;36.13;26.37;;;18.40;99.90;;;;;;5021632;28;20392;-77
2021/09/10 04:17:48;;;;;;;39.77;26.10;;;18.40;99.90;;;;;;5034308;28;20398;-77
2021/09/10 04:20:14;;;;;;;39.20;26.33;;;18.30;99.90;;;;;;5031193;28;20892;-76
2021/09/10 04:22:40;;;;;;;38.03;24.63;;;18.30;99.90;;;;;;5029698;28;20494;-77
2021/09/10 04:25:07;;;;;;;42.30;25.50;;;18.30;99.90;;;;;;5031310;28;20399;-77
2021/09/10 04:27:33;;;;;;;37.83;26.13;;;18.30;99.90;;;;;;5028929;28;20886;-76
2021/09/10 04:29:58;;;;;;;38.55;26.85;;;18.30;99.90;;;;;;5030859;28;20419;-77
2021/09/10 04:32:24;;;;;;;33.40;25.40;;;18.30;99.90;;;;;;5030775;28;20393;-77
2021/09/10 04:34:50;;;;;;;36.28;26.00;;;18.30;99.90;;;;;;5031042;28;20389;-77
2021/09/10 04:37:16;;;;;;;41.30;27.00;;;18.30;99.90;;;;;;5030413;28;20399;-77
2021/09/10 04:39:42;;;;;;;41.38;26.60;;;18.30;99.90;;;;;;5030886;28;20391;-77
2021/09/10 04:42:08;;;;;;;34.90;25.42;;;18.30;99.90;;;;;;5029909;28;20398;-78
2021/09/10 04:44:34;;;;;;;37.30;24.50;;;18.40;99.90;;;;;;5035130;28;20383;-78
2021/09/10 04:46:59;;;;;;;37.57;24.50;;;18.40;99.90;;;;;;5033879;28;20405;-79
2021/09/10 04:49:25;;;;;;;34.20;24.93;;;18.40;99.90;;;;;;5032039;28;20403;-77
2021/09/10 04:51:50;;;;;;;39.72;24.70;;;18.40;99.90;;;;;;5032846;28;20714;-77
2021/09/10 04:54:16;;;;;;;37.27;24.43;;;18.40;99.90;;;;;;5033262;28;20436;-77
2021/09/10 04:56:45;;;;;;;35.43;24.10;;;18.40;99.90;;;;;;5033756;28;20551;-78
2021/09/10 04:59:12;;;;;;;37.42;25.35;;;18.30;99.90;;;;;;5034220;28;20387;-78
2021/09/10 05:01:38;;;;;;;90.97;64.22;;;18.30;99.90;;;;;;5034185;28;20426;-78
2021/09/10 05:04:04;;;;;;;49.07;34.87;;;18.30;99.90;;;;;;5033180;28;20398;-79
2021/09/10 05:06:29;;;;;;;42.27;27.30;;;18.30;99.90;;;;;;5032274;28;20508;-77
2021/09/10 05:08:56;;;;;;;37.33;26.53;;;18.30;99.90;;;;;;5031290;28;20410;-77
2021/09/10 05:11:22;;;;;;;49.08;31.00;;;18.30;99.90;;;;;;5032749;28;20760;-77
2021/09/10 05:13:48;;;;;;;81.30;60.92;;;18.30;99.90;;;;;;5033409;28;20400;-77
2021/09/10 05:16:13;;;;;;;61.08;43.22;;;18.30;99.90;;;;;;5042371;28;20399;-77
2021/09/10 05:18:39;;;;;;;32.80;24.55;;;18.30;99.90;;;;;;5044345;28;20403;-77
2021/09/10 05:21:05;;;;;;;34.55;24.83;;;18.30;99.90;;;;;;5038702;28;20395;-77
2021/09/10 05:23:31;;;;;;;70.28;50.75;;;18.20;99.90;;;;;;5041895;28;20406;-78
2021/09/10 05:25:57;;;;;;;76.72;54.78;;;18.20;99.90;;;;;;5040380;28;20399;-78
2021/09/10 05:28:23;;;;;;;35.25;26.67;;;18.30;99.90;;;;;;5034157;28;20463;-78
2021/09/10 05:30:48;;;;;;;49.10;34.67;;;18.30;99.90;;;;;;5033869;28;20438;-79
2021/09/10 05:33:14;;;;;;;43.20;30.25;;;18.30;99.90;;;;;;5031600;28;20383;-78
2021/09/10 05:35:40;;;;;;;42.10;27.90;;;18.40;99.90;;;;;;5034128;28;20764;-78
2021/09/10 05:38:05;;;;;;;31.13;24.00;;;18.30;99.90;;;;;;5033370;28;20784;-79
2021/09/10 05:40:31;;;;;;;40.60;26.60;;;18.40;99.90;;;;;;5032260;28;20414;-77
2021/09/10 05:42:56;;;;;;;34.00;24.47;;;18.40;99.90;;;;;;5030816;28;20388;-78
2021/09/10 05:45:22;;;;;;;35.07;23.17;;;18.40;99.90;;;;;;5035955;28;20432;-76
2021/09/10 05:47:47;;;;;;;36.13;26.55;;;18.40;99.90;;;;;;5040655;28;20418;-77
2021/09/10 05:50:13;;;;;;;50.28;34.53;;;18.40;99.90;;;;;;5040920;28;20426;-77
2021/09/10 05:52:39;;;;;;;36.50;26.07;;;18.40;99.90;;;;;;5038313;28;20403;-77
2021/09/10 05:55:05;;;;;;;39.97;28.08;;;18.40;99.90;;;;;;5037843;28;20422;-79
2021/09/10 05:57:30;;;;;;;35.25;25.17;;;18.50;99.90;;;;;;5039772;28;20434;-77
2021/09/10 05:59:56;;;;;;;37.00;23.35;;;18.50;99.90;;;;;;5042915;28;20399;-78
2021/09/10 06:02:22;;;;;;;33.13;24.20;;;18.60;99.90;;;;;;5049484;28;20449;-76
2021/09/10 06:04:48;;;;;;;46.63;28.13;;;18.70;99.90;;;;;;5051094;28;20383;-77
2021/09/10 06:07:14;;;;;;;31.40;22.95;;;18.70;99.90;;;;;;5050298;28;20438;-77
2021/09/10 06:09:40;;;;;;;30.97;21.10;;;18.80;99.90;;;;;;5046171;28;20395;-77
2021/09/10 06:12:06;;;;;;;30.00;21.57;;;18.90;99.90;;;;;;5041701;28;20390;-78
2021/09/10 06:14:32;;;;;;;28.85;19.92;;;19.00;99.90;;;;;;5028822;28;20396;-76
2021/09/10 06:16:58;;;;;;;29.03;20.27;;;19.10;99.90;;;;;;5036461;28;20390;-76
2021/09/10 06:19:23;;;;;;;24.20;19.00;;;19.20;99.90;;;;;;5037854;28;20470;-75
2021/09/10 06:21:49;;;;;;;27.13;19.95;;;19.30;99.90;;;;;;5034620;28;20387;-75
2021/09/10 06:24:15;;;;;;;26.85;19.83;;;19.40;99.90;;;;;;5032708;28;20611;-77
2021/09/10 06:26:40;;;;;;;30.95;19.00;;;19.50;99.90;;;;;;5021587;28;20452;-75
2021/09/10 06:29:06;;;;;;;24.60;18.17;;;19.60;99.90;;;;;;5022840;28;20440;-75
2021/09/10 06:31:32;;;;;;;23.40;17.63;;;19.80;99.90;;;;;;5032057;28;20425;-76
2021/09/10 06:33:57;;;;;;;23.15;18.10;;;20.00;97.70;;;;;;5033520;28;20382;-75
2021/09/10 06:36:23;;;;;;;24.07;17.43;;;20.10;94.10;;;;;;5029183;28;20404;-76
2021/09/10 06:38:48;;;;;;;25.70;16.42;;;20.20;92.40;;;;;;5014289;28;20385;-77
2021/09/10 06:41:14;;;;;;;25.05;17.40;;;20.30;90.10;;;;;;5015410;28;20420;-75
2021/09/10 06:43:40;;;;;;;21.83;16.75;;;20.40;88.90;;;;;;5032183;28;20949;-74
2021/09/10 06:46:06;;;;;;;24.70;15.93;;;20.70;83.80;;;;;;5032465;28;20430;-76
2021/09/10 06:48:32;;;;;;;21.40;16.00;;;20.80;83.10;;;;;;5030745;28;20918;-76
2021/09/10 06:50:57;;;;;;;22.43;15.60;;;21.00;79.60;;;;;;5027233;28;20467;-77
2021/09/10 06:53:23;;;;;;;22.67;15.90;;;21.10;77.30;;;;;;5017309;28;20807;-76
2021/09/10 06:55:48;;;;;;;21.60;15.27;;;21.20;75.40;;;;;;5033661;28;20410;-76
2021/09/10 06:58:14;;;;;;;19.60;14.73;;;21.30;73.30;;;;;;5032956;28;20401;-76
2021/09/10 07:00:40;;;;;;;22.30;14.68;;;21.40;72.10;;;;;;5032205;28;20403;-78
2021/09/10 07:03:05;;;;;;;22.10;14.77;;;21.70;69.50;;;;;;5033205;28;20505;-77
2021/09/10 07:05:31;;;;;;;21.00;14.33;;;21.90;66.90;;;;;;5030836;28;20399;-76
2021/09/10 07:07:56;;;;;;;18.90;13.90;;;22.10;65.30;;;;;;5030775;28;20848;-75
2021/09/10 07:10:23;;;;;;;18.17;13.10;;;22.30;59.60;;;;;;5020603;28;20387;-77
2021/09/10 07:12:49;;;;;;;17.98;12.98;;;22.40;58.10;;;;;;5013716;28;20850;-76
2021/09/10 07:15:15;;;;;;;20.20;13.20;;;22.50;56.20;;;;;;5014591;28;20808;-77
2021/09/10 07:17:40;;;;;;;19.42;13.48;;;22.50;56.40;;;;;;5032383;28;20549;-77
2021/09/10 07:20:06;;;;;;;18.80;13.37;;;22.70;56.50;;;;;;5034670;28;20405;-77
2021/09/10 07:22:32;;;;;;;17.48;12.95;;;22.70;54.50;;;;;;5021828;28;20391;-77
2021/09/10 07:24:58;;;;;;;19.15;13.75;;;22.80;54.60;;;;;;5033581;28;20394;-75
2021/09/10 07:27:23;;;;;;;19.43;13.00;;;22.90;53.40;;;;;;5033139;28;20446;-77
2021/09/10 07:29:49;;;;;;;18.43;12.93;;;22.90;54.10;;;;;;5033963;28;20405;-77
2021/09/10 07:32:14;;;;;;;17.95;13.30;;;23.10;53.40;;;;;;5021768;28;20397;-77
2021/09/10 07:34:40;;;;;;;14.90;11.97;;;23.10;50.70;;;;;;5027109;28;20502;-78
2021/09/10 07:37:05;;;;;;;15.23;12.25;;;23.20;51.00;;;;;;5033344;28;20419;-76
2021/09/10 07:39:31;;;;;;;15.80;12.20;;;23.10;51.40;;;;;;5030539;28;20423;-77
2021/09/10 07:41:57;;;;;;;19.90;13.23;;;23.10;51.60;;;;;;5034738;28;20409;-77
2021/09/10 07:44:22;;;;;;;22.73;13.93;;;23.20;51.20;;;;;;5029025;28;20450;-77
2021/09/10 07:46:52;;;;;;;21.60;13.00;;;23.10;49.90;;;;;;5034905;28;20504;-76
2021/09/10 07:49:18;;;;;;;13.93;12.52;;;23.00;52.40;;;;;;5044168;28;20419;-75
2021/09/10 07:51:43;;;;;;;14.15;11.95;;;23.00;52.70;;;;;;5038987;28;20387;-77
2021/09/10 07:54:09;;;;;;;18.08;12.68;;;23.10;53.10;;;;;;5033318;28;20466;-77
2021/09/10 07:56:35;;;;;;;16.13;12.73;;;23.00;53.70;;;;;;5013882;28;20420;-77
2021/09/10 07:59:01;;;;;;;19.00;12.60;;;23.00;54.40;;;;;;5028599;28;20887;-77
2021/09/10 08:01:26;;;;;;;16.80;12.30;;;23.00;53.80;;;;;;5031800;28;20397;-77
2021/09/10 08:03:52;;;;;;;18.17;12.18;;;23.10;53.30;;;;;;5032993;28;20441;-77
2021/09/10 08:06:17;;;;;;;13.83;12.20;;;23.20;53.40;;;;;;5031610;28;20411;-77
2021/09/10 08:08:43;;;;;;;19.10;12.05;;;23.20;53.00;;;;;;5021743;28;20884;-76
2021/09/10 08:11:09;;;;;;;13.30;11.17;;;23.40;51.70;;;;;;5031623;28;20387;-76
2021/09/10 08:13:34;;;;;;;15.67;10.30;;;23.50;50.80;;;;;;5032321;28;20537;-76
2021/09/10 08:16:00;;;;;;;13.38;10.20;;;23.50;47.30;;;;;;5033071;28;20402;-77
2021/09/10 08:18:25;;;;;;;11.50;9.27;;;23.50;46.90;;;;;;5020795;28;20778;-76
2021/09/10 08:20:55;;;;;;;15.75;10.73;;;23.70;45.30;;;;;;5021579;28;20396;-76
2021/09/10 08:23:21;;;;;;;14.20;10.03;;;23.80;45.00;;;;;;5034383;28;20485;-74
2021/09/10 08:25:46;;;;;;;11.30;9.18;;;23.80;44.20;;;;;;5021084;28;20400;-78
2021/09/10 08:28:12;;;;;;;14.47;9.40;;;23.90;43.90;;;;;;5012337;28;20416;-79
2021/09/10 08:30:37;;;;;;;17.10;8.60;;;23.80;42.70;;;;;;5026730;28;20403;-75
2021/09/10 08:33:12;;;;;;;10.60;8.70;;;23.80;41.70;;;;;;5030115;28;20419;-76
2021/09/10 08:35:37;;;;;;;11.75;8.80;;;23.90;42.00;;;;;;5028969;28;20391;-75
2021/09/10 08:38:06;;;;;;;15.23;8.20;;;23.80;41.20;;;;;;5028353;28;21529;-74
2021/09/10 08:40:33;;;;;;;11.67;9.30;;;23.70;41.50;;;;;;5029294;28;20398;-76
2021/09/10 08:42:59;;;;;;;15.68;9.30;;;23.80;42.20;;;;;;5026509;28;20859;-73
2021/09/10 08:45:28;;;;;;;15.02;9.73;;;23.90;42.30;;;;;;5018113;28;20408;-75
2021/09/10 08:47:55;;;;;;;13.48;9.30;;;23.90;42.40;;;;;;5013696;28;20402;-75
2021/09/10 08:50:23;;;;;;;18.30;8.80;;;24.00;41.90;;;;;;5022109;28;20416;-76
2021/09/10 08:52:49;;;;;;;11.35;8.85;;;23.90;42.70;;;;;;5024500;28;20403;-77
2021/09/10 08:55:16;;;;;;;12.18;8.90;;;23.90;42.10;;;;;;5030916;28;20386;-77
2021/09/10 08:57:54;;;;;;;12.60;8.80;;;24.00;42.20;;;;;;5032351;28;20704;-77
2021/09/10 09:00:32;;;;;;;11.70;8.40;;;23.90;43.20;;;;;;5032123;28;20494;-78
2021/09/10 09:03:06;;;;;;;11.45;8.00;;;23.90;42.60;;;;;;5028532;28;20410;-78
2021/09/10 09:05:32;;;;;;;11.55;7.28;;;23.90;42.20;;;;;;5028059;28;20411;-78
2021/09/10 09:08:17;;;;;;;11.05;7.60;;;23.90;42.20;;;;;;5026342;28;20742;-78
2021/09/10 09:11:06;;;;;;;8.20;6.30;;;23.90;42.30;;;;;;5018404;28;20395;-77
2021/09/10 09:13:33;;;;;;;9.47;6.30;;;23.90;41.10;;;;;;5030157;28;20498;-75
2021/09/10 09:16:29;;;;;;;16.37;6.73;;;24.10;40.10;;;;;;5030828;28;20386;-77
2021/09/10 09:18:59;;;;;;;8.20;6.05;;;24.30;39.70;;;;;;5031589;28;20729;-78
2021/09/10 09:21:27;;;;;;;7.70;6.20;;;24.60;38.30;;;;;;5028370;28;20391;-78
2021/09/10 09:23:55;;;;;;;11.63;6.57;;;25.00;36.60;;;;;;5031199;28;20387;-77
2021/09/10 09:26:27;;;;;;;11.15;6.53;;;25.30;35.30;;;;;;5031473;28;20476;-79
2021/09/10 09:29:08;;;;;;;9.02;6.28;;;25.50;35.20;;;;;;5031574;28;20387;-78
2021/09/10 09:31:34;;;;;;;8.55;6.10;;;25.80;33.30;;;;;;5037423;28;20580;-78
2021/09/10 09:34:00;;;;;;;8.67;5.77;;;25.80;32.70;;;;;;5040404;28;20387;-78
2021/09/10 09:36:25;;;;;;;11.50;5.85;;;25.80;33.20;;;;;;5034498;28;20406;-77
2021/09/10 09:38:51;;;;;;;13.48;10.90;;;25.90;32.40;;;;;;5035287;28;20945;-78
2021/09/10 09:41:21;;;;;;;7.53;5.90;;;25.90;32.30;;;;;;5035227;28;20422;-78
2021/09/10 09:43:48;;;;;;;10.73;5.90;;;26.00;32.10;;;;;;5037420;28;20387;-78
2021/09/10 09:46:16;;;;;;;9.73;5.60;;;26.00;32.30;;;;;;5035743;28;20403;-78
2021/09/10 09:48:44;;;;;;;9.27;5.20;;;26.10;30.90;;;;;;5034445;28;20421;-77
2021/09/10 09:51:12;;;;;;;7.88;5.10;;;26.20;30.60;;;;;;5035106;28;20465;-79
2021/09/10 09:53:39;;;;;;;7.80;5.13;;;26.30;30.00;;;;;;5034112;28;20461;-78
2021/09/10 09:56:08;;;;;;;7.80;4.78;;;26.30;28.70;;;;;;5033823;28;20394;-78
2021/09/10 09:58:38;;;;;;;6.97;4.82;;;26.30;29.70;;;;;;5036621;28;20450;-77
2021/09/10 10:01:04;;;;;;;9.70;4.90;;;26.20;29.70;;;;;;5039992;28;20383;-78
2021/09/10 10:03:30;;;;;;;6.63;5.50;;;26.10;29.50;;;;;;5038609;28;20417;-79
2021/09/10 10:06:02;;;;;;;8.87;5.40;;;25.90;29.30;;;;;;5036653;28;20394;-78
2021/09/10 10:08:34;;;;;;;8.38;5.38;;;25.60;29.80;;;;;;5023630;28;20393;-77
2021/09/10 10:11:13;;;;;;;7.37;5.17;;;25.50;31.30;;;;;;5032020;28;20375;-77
2021/09/10 10:13:39;;;;;;;8.02;5.63;;;25.40;31.70;;;;;;5038374;28;20391;-79
2021/09/10 10:16:05;;;;;;;7.45;5.60;;;25.30;32.20;;;;;;5039807;28;20749;-78
2021/09/10 10:18:44;;;;;;;6.73;5.60;;;25.50;32.00;;;;;;5036749;28;20444;-78
2021/09/10 10:21:11;;;;;;;9.13;5.95;;;25.20;33.10;;;;;;5028622;28;20398;-78
2021/09/10 10:23:43;;;;;;;6.82;5.25;;;25.10;33.70;;;;;;5016944;28;20377;-77
2021/09/10 10:26:11;;;;;;;6.43;5.80;;;25.00;34.60;;;;;;5014368;28;20404;-77
2021/09/10 10:28:48;;;;;;;7.93;6.80;;;24.80;36.60;;;;;;5014108;28;20397;-77
2021/09/10 10:31:15;;;;;;;9.32;6.70;;;24.40;39.40;;;;;;5013579;28;20475;-77
2021/09/10 10:34:03;;;;;;;10.10;6.35;;;24.20;42.20;;;;;;5011801;28;20400;-77
2021/09/10 10:36:31;;;;;;;11.30;7.00;;;24.10;44.20;;;;;;5032378;28;20515;-79
2021/09/10 10:39:12;;;;;;;8.80;6.13;;;24.10;43.70;;;;;;5032911;28;20446;-79
2021/09/10 10:41:48;;;;;;;10.68;7.03;;;24.20;43.50;;;;;;5032817;28;21199;-78
2021/09/10 10:44:32;;;;;;;11.15;6.10;;;24.20;44.20;;;;;;5035267;28;20481;-78
2021/09/10 10:47:08;;;;;;;12.82;7.00;;;24.10;42.30;;;;;;5044142;28;20413;-78
2021/09/10 10:49:38;;;;;;;6.88;5.53;;;24.10;43.40;;;;;;5041476;28;20401;-78
2021/09/10 10:52:35;;;;;;;7.93;5.78;;;24.00;42.30;;;;;;5015383;28;20377;-77
2021/09/10 10:55:36;;;;;;;9.30;6.00;;;23.90;42.90;;;;;;5033088;28;20493;-77
2021/09/10 10:58:26;;;;;;;10.82;7.32;;;23.90;45.00;;;;;;5014823;28;20396;-78
2021/09/10 11:00:59;;;;;;;11.88;7.60;;;23.80;46.90;;;;;;5036195;28;20395;-79
2021/09/10 11:03:25;;;;;;;19.00;8.03;;;23.70;48.40;;;;;;5049612;28;20426;-79
2021/09/10 11:05:52;;;;;;;13.70;8.20;;;23.80;48.30;;;;;;5050217;28;20431;-78
2021/09/10 11:08:35;;;;;;;10.85;7.50;;;24.10;48.00;;;;;;5033037;28;20916;-77
2021/09/10 11:11:01;;;;;;;14.82;8.27;;;24.50;45.60;;;;;;5029212;28;20454;-77
2021/09/10 11:13:30;;;;;;;10.30;7.68;;;25.00;43.70;;;;;;5012823;28;20472;-78
2021/09/10 11:15:56;;;;;;;12.93;8.05;;;25.50;38.70;;;;;;5016091;28;20389;-78
2021/09/10 11:18:25;;;;;;;14.70;7.40;;;25.80;38.70;;;;;;5032557;28;20690;-78
2021/09/10 11:20:53;;;;;;;13.68;7.05;;;26.00;37.70;;;;;;5032524;28;20406;-79
2021/09/10 11:23:27;;;;;;;15.70;7.30;;;26.10;36.60;;;;;;5033748;28;20466;-77
2021/09/10 11:25:55;;;;;;;10.00;6.77;;;26.60;35.00;;;;;;5031764;28;20379;-74
2021/09/10 11:28:25;;;;;;;10.70;6.57;;;26.40;33.20;;;;;;5016970;28;20416;-75
2021/09/10 11:30:52;;;;;;;11.10;7.13;;;26.10;34.30;;;;;;5014055;28;20882;-77
2021/09/10 11:33:18;;;;;;;10.10;6.00;;;26.00;35.00;;;;;;5031731;28;20406;-75
2021/09/10 11:35:46;;;;;;;13.00;8.60;;;25.90;34.60;;;;;;5031821;28;20383;-73
2021/09/10 11:38:17;;;;;;;8.60;6.40;;;25.80;35.00;;;;;;5030968;28;20477;-75
2021/09/10 11:40:43;;;;;;;13.60;6.80;;;25.90;33.90;;;;;;5028499;28;20398;-74
2021/09/10 11:43:13;;;;;;;9.30;5.73;;;26.10;35.00;;;;;;5011693;28;20386;-75
2021/09/10 11:45:44;;;;;;;11.70;5.82;;;26.30;34.70;;;;;;5010721;28;20854;-74
2021/09/10 11:48:12;;;;;;;15.55;7.35;;;26.50;32.90;;;;;;5024384;28;20403;-74
2021/09/10 11:51:04;;;;;;;8.90;6.60;;;26.70;31.70;;;;;;5020225;28;20458;-74
2021/09/10 11:53:33;;;;;;;14.05;7.15;;;27.10;31.80;;;;;;5008797;28;20397;-73
2021/09/10 11:56:11;;;;;;;8.30;6.40;;;27.00;30.70;;;;;;5022691;28;20984;-75
2021/09/10 11:58:47;;;;;;;12.75;7.30;;;26.90;31.10;;;;;;5030931;28;20394;-75
2021/09/10 12:01:13;;;;;;;11.25;6.97;;;27.20;30.20;;;;;;5030484;28;20437;-73
2021/09/10 12:03:47;;;;;;;8.87;5.50;;;27.30;28.00;;;;;;5031086;28;20934;-74
2021/09/10 12:06:17;;;;;;;10.82;5.60;;;27.20;27.50;;;;;;5030403;28;20387;-73
2021/09/10 12:09:05;;;;;;;7.45;5.20;;;27.20;26.80;;;;;;5031686;28;20441;-73
2021/09/10 12:11:31;;;;;;;8.75;5.55;;;27.40;26.10;;;;;;5032542;28;20930;-72
2021/09/10 12:13:57;;;;;;;6.20;5.18;;;27.00;26.60;;;;;;5033285;28;20450;-73
2021/09/10 12:16:22;;;;;;;5.67;5.13;;;26.40;28.10;;;;;;5031314;28;20380;-74
2021/09/10 12:19:04;;;;;;;9.50;5.60;;;26.20;29.50;;;;;;5030721;28;20466;-74
2021/09/10 12:21:34;;;;;;;13.20;5.70;;;25.80;29.90;;;;;;5023666;28;20419;-74
2021/09/10 12:24:11;;;;;;;9.85;5.80;;;25.70;30.70;;;;;;5030984;28;20379;-73
2021/09/10 12:26:54;;;;;;;6.57;5.63;;;25.60;31.30;;;;;;5031144;28;20410;-73
2021/09/10 12:29:25;;;;;;;6.88;6.05;;;25.50;32.10;;;;;;5030408;28;20756;-73
2021/09/10 12:31:54;;;;;;;7.00;5.85;;;25.30;32.50;;;;;;5030715;28;20473;-75
2021/09/10 12:34:19;;;;;;;11.30;5.80;;;25.20;32.70;;;;;;5030447;28;20951;-72